Aviation Digital Data Service (ADDS)

Output produced by METARs form (2119 UTC 24 November 2014)
found at http://www.aviationweather.gov/adds/metars/
 
KDUJ 242053Z AUTO 21019G32KT 10SM FEW080 BKN100 18/04 A2946 RMK AO2 PK WND 22039/2006 SLP971 T01780044 53018
KDUJ 241953Z AUTO 23019G38KT 10SM SCT070 BKN090 18/04 A2943 RMK AO2 PK WND 23039/1932 SLP960 T01830044
KDUJ 241853Z AUTO 22017G27KT 10SM BKN070 OVC085 18/04 A2941 RMK AO2 PK WND 24034/1828 SLP954 T01830044
KDUJ 241753Z AUTO 20013G25KT 10SM FEW060 SCT070 OVC090 19/07 A2940 RMK AO2 PK WND 22034/1739 SLP952 T01890067 10194 20139 56014
KDUJ 241653Z AUTO 21016G37KT 10SM BKN060 BKN075 BKN090 18/07 A2941 RMK AO2 PK WND 22037/1649 SLP955 T01780072
KDUJ 241553Z AUTO 21015G30KT 10SM BKN049 BKN060 18/08 A2944 RMK AO2 PK WND 24030/1551 SLP964 T01780078
KDUJ 241453Z AUTO 21014G26KT 10SM FEW036 17/10 A2945 RMK AO2 PK WND 23026/1452 SLP968 T01670100 58005
KDUJ 241353Z AUTO 20009G17KT 160V240 10SM OVC060 16/10 A2946 RMK AO2 SLP973 T01560100
KDUJ 241253Z AUTO 19010G19KT 10SM FEW024 FEW030 OVC037 14/11 A2946 RMK AO2 SLP975 T01390111
KDUJ 241153Z AUTO 22009G18KT 10SM OVC055 14/10 A2946 RMK AO2 SLP975 60014 70052 T01390100 10139 20089 53009
KDUJ 241053Z AUTO 18011G17KT 5SM BR BKN035 BKN041 OVC048 12/10 A2945 RMK AO2 SLP971 T01220100 $
KDUJ 240953Z AUTO 15012G19KT 10SM OVC041 12/09 A2943 RMK AO2 SLP963 T01220094 $
KDUJ 240853Z AUTO 15010G22KT 10SM SCT014 OVC047 11/09 A2944 RMK AO2 SLP965 60014 T01110094 58025
KDUJ 240812Z AUTO 14011G19KT 10SM BKN011 OVC016 11/09 A2945 RMK AO2 T01060089
KDUJ 240753Z AUTO 14013G20KT 10SM OVC009 10/09 A2947 RMK AO2 PK WND 14026/0704 CIG 006V014 SLP976 T01000089
KDUJ 240653Z AUTO 14012G25KT 110V180 10SM BKN007 OVC012 09/08 A2950 RMK AO2 RAE42 CIG 005V010 SLP989 P0014 T00940078
KDUJ 240627Z AUTO 13013G25KT 4SM -RA BR BKN007 OVC011 09/08 A2949 RMK AO2 P0014 T00890078
KDUJ 240615Z AUTO 12015G22KT 2SM RA BR BKN006 OVC012 09/08 A2950 RMK AO2 CIG 005V010 P0011 T00890078
KDUJ 240553Z AUTO 12012G19KT 3SM -RA BR BKN006 OVC012 09/08 A2951 RMK AO2 PK WND 13026/0542 CIG 005V009 PRESFR SLP992 P0021 60038 T00890083 10111 20083 58071
KDUJ 240532Z AUTO 14015G23KT 3SM -RA BR OVC008 09/08 A2956 RMK AO2 CIG 005V010 P0015 T00890083
KDUJ 240509Z AUTO 14015G23KT 2 1/2SM -RA BR BKN008 OVC012 09/08 A2960 RMK AO2 CIG 006V010 P0006 T00890078
KDUJ 240500Z AUTO 13013G26KT 3SM -RA BR OVC010 09/08 A2961 RMK AO2 CIG 007V013 P0002 T00940078
KDUJ 240453Z AUTO 13016G23KT 5SM -RA BR BKN008 OVC013 09/08 A2961 RMK AO2 PK WND 13028/0434 CIG 007V010 SLP027 P0011 T00890078 401500056
KDUJ 240353Z AUTO 13013G20KT 4SM -RA BR BKN014 OVC060 08/07 A2968 RMK AO2 PK WND 14028/0259 PRESFR SLP054 P0006 T00830067
KDUJ 240343Z AUTO 13015G22KT 4SM -RA BR BKN016 BKN055 OVC075 08/07 A2970 RMK AO2 PK WND 14028/0259 PRESFR P0005 T00830067
KDUJ 240253Z AUTO 14015G25KT 8SM -RA SCT025 BKN095 OVC110 10/05 A2974 RMK AO2 RAB50 SLP071 P0000 60000 T01000050 56018
KDUJ 240248Z AUTO 15015G25KT 10SM SCT025 BKN095 OVC110 10/04 A2974 RMK AO2
KDUJ 240207Z AUTO 14013G25KT 10SM BKN024 11/03 A2975 RMK AO2 T01060028
KDUJ 240153Z AUTO 14018G25KT 10SM FEW026 11/02 A2976 RMK AO2 SLP080 T01060017
KDUJ 240053Z AUTO 14013G21KT 10SM CLR 11/00 A2979 RMK AO2 SLP091 T01060000
KDUJ 232353Z AUTO 14010G18KT 10SM CLR 11/01 A2983 RMK AO2 SLP105 T01060006 10150 20106 56031
KDUJ 232253Z AUTO 12010KT 10SM CLR 11/01 A2986 RMK AO2 SLP115 T01060011
KDUJ 232153Z AUTO 11009KT 10SM CLR 11/02 A2989 RMK AO2 SLP125 T01110017
KDUJ 232053Z AUTO 12011KT 10SM CLR 13/02 A2993 RMK AO2 SLP136 T01330022 56023
KDUJ 231953Z AUTO 16006KT 10SM CLR 15/03 A2995 RMK AO2 SLP142 T01500028
KDUJ 231853Z AUTO 15006KT 10SM CLR 14/04 A2998 RMK AO2 SLP152 T01440039
KDUJ 231753Z AUTO 14005KT 10SM CLR 14/02 A3000 RMK AO2 SLP162 T01390022 10139 20067 58026
KDUJ 231653Z AUTO 14005KT 10SM CLR 12/01 A3002 RMK AO2 SLP171 T01220011
KDUJ 231553Z AUTO 12003KT 10SM OVC080 08/02 A3009 RMK AO2 SLP195 T00830017
KDUJ 231453Z AUTO 22003KT 10SM OVC075 09/M02 A3008 RMK AO2 SLP191 T00941017 58002
KDUJ 231353Z AUTO 21003KT 10SM OVC033 09/M02 A3008 RMK AO2 SLP193 T00891017
KDUJ 231253Z AUTO 19003KT 10SM OVC035 07/01 A3009 RMK AO2 SLP198 T00720011
KDUJ 231153Z AUTO 20005KT 10SM OVC038 07/01 A3009 RMK AO2 SLP198 60000 70009 T00720006 10078 20056 53006
KDUJ 231053Z AUTO 22008KT 10SM OVC040 08/M01 A3007 RMK AO2 SLP194 T00781006
KDUJ 230953Z AUTO 24009KT 10SM OVC037 07/M01 A3007 RMK AO2 SLP194 T00721006